createdAt,value
2022-09-05T00:02:33.971Z,0.70
2022-09-05T00:05:09.862Z,0.60
2022-09-05T00:08:07.256Z,0.50
2022-09-05T00:11:40.891Z,0.60
2022-09-05T00:14:09.940Z,0.80
2022-09-05T00:16:55.447Z,0.70
2022-09-05T00:24:20.387Z,0.70
2022-09-05T00:24:28.427Z,0.60
2022-09-05T00:26:01.445Z,0.50
2022-09-05T00:28:56.102Z,0.70
2022-09-05T00:31:54.527Z,0.73
2022-09-05T00:34:47.195Z,0.80
2022-09-05T00:37:27.898Z,0.90
2022-09-05T00:40:17.661Z,0.60
2022-09-05T00:42:47.111Z,0.68
2022-09-05T00:45:30.711Z,0.90
2022-09-05T00:48:16.626Z,0.70
2022-09-05T00:50:57.008Z,0.93
2022-09-05T00:53:42.580Z,0.60
2022-09-05T00:56:58.570Z,0.65
2022-09-05T00:59:58.671Z,0.70
2022-09-05T01:02:49.817Z,0.80
2022-09-05T01:05:55.363Z,0.60
2022-09-05T01:08:53.017Z,0.70
2022-09-05T01:11:37.213Z,0.63
2022-09-05T01:14:15.581Z,0.80
2022-09-05T01:17:06.610Z,1.00
2022-09-05T01:20:19.803Z,0.80
2022-09-05T01:23:18.219Z,0.50
2022-09-05T01:25:55.424Z,0.77
2022-09-05T01:29:17.872Z,0.70
2022-09-05T01:31:57.646Z,1.00
2022-09-05T01:34:33.974Z,0.67
2022-09-05T01:37:24.786Z,0.63
2022-09-05T01:40:44.541Z,0.80
2022-09-05T01:43:25.698Z,0.70
2022-09-05T01:46:18.660Z,0.98
2022-09-05T01:49:01.600Z,0.70
2022-09-05T01:51:34.358Z,0.68
2022-09-05T01:54:29.109Z,0.70
2022-09-05T01:57:30.015Z,0.80
2022-09-05T02:00:14.616Z,0.80
2022-09-05T02:02:51.996Z,0.70
2022-09-05T02:05:48.569Z,0.80
2022-09-05T02:08:30.596Z,0.95
2022-09-05T02:11:04.481Z,0.73
2022-09-05T02:13:33.819Z,0.80
2022-09-05T02:16:00.540Z,1.10
2022-09-05T02:18:36.397Z,0.70
2022-09-05T02:21:09.229Z,0.90
2022-09-05T02:23:44.614Z,0.90
2022-09-05T02:26:29.718Z,0.60
2022-09-05T02:29:03.128Z,0.80
2022-09-05T02:31:55.318Z,0.80
2022-09-05T02:34:27.493Z,0.60
2022-09-05T02:37:16.199Z,0.77
2022-09-05T02:45:03.907Z,0.85
2022-09-05T02:45:24.379Z,0.83
2022-09-05T02:46:30.580Z,0.60
2022-09-05T02:49:41.875Z,0.85
2022-09-05T02:57:24.636Z,0.77
2022-09-05T02:57:41.152Z,0.90
2022-09-05T02:58:06.994Z,0.80
2022-09-05T03:00:44.731Z,0.80
2022-09-05T03:03:29.014Z,0.80
2022-09-05T03:06:00.916Z,0.90
2022-09-05T03:08:44.233Z,0.88
2022-09-05T03:12:28.907Z,1.00
2022-09-05T03:15:20.847Z,0.70
2022-09-05T03:18:31.194Z,0.80
2022-09-05T03:21:16.304Z,0.98
2022-09-05T03:24:04.072Z,0.80
2022-09-05T03:26:45.674Z,0.70
2022-09-05T03:29:46.128Z,0.75
2022-09-05T03:32:34.493Z,0.90
2022-09-05T03:35:08.800Z,0.90
2022-09-05T03:38:12.834Z,0.90
2022-09-05T03:40:48.636Z,0.87
2022-09-05T03:43:39.648Z,0.90
2022-09-05T03:46:35.277Z,0.77
2022-09-05T03:53:37.946Z,0.85
2022-09-05T03:57:14.941Z,1.00
2022-09-05T03:57:25.240Z,0.97
2022-09-05T03:59:30.104Z,0.85
2022-09-05T04:03:15.876Z,1.10
2022-09-05T04:08:14.569Z,1.00
2022-09-05T04:08:41.861Z,0.95
2022-09-05T04:11:04.556Z,0.93
2022-09-05T04:13:45.608Z,0.80
2022-09-05T04:16:30.096Z,0.93
2022-09-05T04:19:18.055Z,0.90
2022-09-05T04:22:20.121Z,1.00
2022-09-05T04:24:57.156Z,0.87
2022-09-05T04:28:14.641Z,0.90
2022-09-05T04:30:58.641Z,0.88
2022-09-05T04:34:02.462Z,1.02
2022-09-05T04:36:37.914Z,0.90
2022-09-05T04:39:07.242Z,0.90
2022-09-05T04:41:40.533Z,1.00
2022-09-05T04:44:14.844Z,1.02
2022-09-05T04:46:56.014Z,0.80
2022-09-05T04:49:30.705Z,1.10
2022-09-05T04:52:14.803Z,0.90
2022-09-05T04:54:59.858Z,1.05
2022-09-05T04:57:51.245Z,0.88
2022-09-05T05:05:58.863Z,0.80
2022-09-05T05:06:18.898Z,1.02
2022-09-05T05:06:38.390Z,0.90
2022-09-05T05:09:21.913Z,1.00
2022-09-05T05:18:00.614Z,1.10
2022-09-05T05:18:10.905Z,1.17
2022-09-05T05:18:42.511Z,1.10
2022-09-05T05:21:10.433Z,1.20
2022-09-05T05:23:39.681Z,0.95
2022-09-05T05:26:11.276Z,0.93
2022-09-05T05:29:11.153Z,1.38
2022-09-05T05:31:46.800Z,1.10
2022-09-05T05:34:28.573Z,1.00
2022-09-05T05:37:29.851Z,0.98
2022-09-05T05:40:19.335Z,0.90
2022-09-05T05:42:46.807Z,1.08
2022-09-05T05:45:27.276Z,1.10
2022-09-05T05:48:20.134Z,0.87
2022-09-05T05:50:52.685Z,1.25
2022-09-05T05:54:07.317Z,1.27
2022-09-05T05:57:10.079Z,0.85
2022-09-05T06:00:09.052Z,1.15
2022-09-05T06:03:26.186Z,1.20
2022-09-05T06:06:12.185Z,1.00
2022-09-05T06:14:49.817Z,0.80
2022-09-05T06:15:02.057Z,1.20
2022-09-05T06:16:10.362Z,1.27
2022-09-05T06:18:56.892Z,1.07
2022-09-05T06:22:09.468Z,1.00
2022-09-05T06:24:58.471Z,1.20
2022-09-05T06:28:02.244Z,1.10
2022-09-05T06:31:29.262Z,0.90
2022-09-05T06:34:33.316Z,1.10
2022-09-05T06:37:37.171Z,1.13
2022-09-05T06:40:13.080Z,1.10
2022-09-05T06:42:44.139Z,0.95
2022-09-05T06:45:28.240Z,1.05
2022-09-05T06:48:23.863Z,1.00
2022-09-05T06:51:45.188Z,1.00
2022-09-05T06:54:19.024Z,0.93
2022-09-05T06:57:23.661Z,1.00
2022-09-05T07:00:24.818Z,1.13
2022-09-05T07:03:00.845Z,1.17
2022-09-05T07:05:55.753Z,0.98
2022-09-05T07:08:35.966Z,1.10
2022-09-05T07:11:21.179Z,1.00
2022-09-05T07:13:56.042Z,1.13
2022-09-05T07:16:52.979Z,1.10
2022-09-05T07:19:27.580Z,1.05
2022-09-05T07:22:46.530Z,0.95
2022-09-05T07:25:18.052Z,1.10
2022-09-05T07:28:26.536Z,1.20
2022-09-05T07:30:40.259Z,1.20
2022-09-05T07:33:08.273Z,1.10
2022-09-05T07:35:41.704Z,1.05
2022-09-05T07:38:13.902Z,1.00
2022-09-05T07:41:20.034Z,1.10
2022-09-05T07:43:49.162Z,0.97
2022-09-05T07:46:20.045Z,1.00
2022-09-05T07:48:52.165Z,0.85
2022-09-05T07:56:46.186Z,1.20
2022-09-05T07:56:53.850Z,1.20
2022-09-05T07:57:31.939Z,1.40
2022-09-05T08:00:27.143Z,1.00
2022-09-05T08:03:08.728Z,1.00
2022-09-05T08:05:42.315Z,1.15
2022-09-05T08:08:14.574Z,1.00
2022-09-05T08:11:23.450Z,1.00
2022-09-05T08:13:40.629Z,1.23
2022-09-05T08:16:14.036Z,1.27
2022-09-05T08:18:45.839Z,1.10
2022-09-05T08:21:26.952Z,1.08
2022-09-05T08:24:13.141Z,1.23
2022-09-05T08:27:04.669Z,1.05
2022-09-05T08:29:37.385Z,1.17
2022-09-05T08:32:08.603Z,1.15
2022-09-05T08:35:01.941Z,1.40
2022-09-05T08:37:31.433Z,1.20
2022-09-05T08:40:11.547Z,1.10
2022-09-05T08:42:58.991Z,1.60
2022-09-05T08:46:46.956Z,1.50
2022-09-05T08:49:00.628Z,1.30
2022-09-05T08:51:53.869Z,1.23
2022-09-05T08:55:06.212Z,1.45
2022-09-05T08:57:45.428Z,1.27
2022-09-05T09:00:20.289Z,1.50
2022-09-05T09:02:57.160Z,1.48
2022-09-05T09:05:56.709Z,1.40
2022-09-05T09:09:15.763Z,1.13
2022-09-05T09:11:54.728Z,1.40
2022-09-05T09:14:40.142Z,1.13
2022-09-05T09:17:27.429Z,1.35
2022-09-05T09:20:09.988Z,0.93
2022-09-05T09:23:05.583Z,1.27
2022-09-05T09:25:49.059Z,1.40
2022-09-05T09:28:50.626Z,1.20
2022-09-05T09:31:45.723Z,1.23
2022-09-05T09:34:28.729Z,1.30
2022-09-05T09:37:50.802Z,1.30
2022-09-05T09:40:43.815Z,1.23
2022-09-05T09:43:27.401Z,1.50
2022-09-05T09:46:00.166Z,1.40
2022-09-05T09:48:29.790Z,1.40
2022-09-05T09:51:22.869Z,1.55
2022-09-05T09:54:16.443Z,1.15
2022-09-05T09:57:01.659Z,1.75
2022-09-05T10:00:01.102Z,1.42
2022-09-05T10:05:28.800Z,1.30
2022-09-05T10:10:39.943Z,1.25
2022-09-05T10:10:54.674Z,1.60
2022-09-05T10:12:54.710Z,1.42
2022-09-05T10:16:06.098Z,1.48
2022-09-05T10:20:07.547Z,1.73
2022-09-05T10:22:37.647Z,1.50
2022-09-05T10:25:25.503Z,1.50
2022-09-05T10:28:13.898Z,1.60
2022-09-05T10:31:18.325Z,1.80
2022-09-05T10:35:06.080Z,1.80
2022-09-05T10:36:54.908Z,2.35
2022-09-05T10:39:31.947Z,2.00
2022-09-05T10:42:03.609Z,1.77
2022-09-05T10:44:52.715Z,2.72
2022-09-05T10:47:35.933Z,1.90
2022-09-05T10:50:20.636Z,1.60
2022-09-05T10:53:09.529Z,2.00
2022-09-05T10:56:02.470Z,1.83
2022-09-05T11:01:23.452Z,1.90
2022-09-05T11:02:21.866Z,1.97
2022-09-05T11:04:49.672Z,1.90
2022-09-05T11:07:24.785Z,1.90
2022-09-05T11:10:18.081Z,1.90
2022-09-05T11:12:58.647Z,2.03
2022-09-05T11:15:47.820Z,1.37
2022-09-05T11:18:55.964Z,1.70
2022-09-05T11:21:41.821Z,1.40
2022-09-05T11:24:34.107Z,1.30
2022-09-05T11:27:24.275Z,1.27
2022-09-05T11:30:01.859Z,1.60
2022-09-05T11:39:46.916Z,1.20
2022-09-05T11:40:08.638Z,1.42
2022-09-05T11:40:09.969Z,1.40
2022-09-05T11:42:50.772Z,1.70
2022-09-05T11:45:40.041Z,1.50
2022-09-05T11:48:12.818Z,1.45
2022-09-05T11:51:16.266Z,2.20
2022-09-05T11:54:12.234Z,1.92
2022-09-05T11:57:18.050Z,2.60
2022-09-05T12:02:49.690Z,2.50
2022-09-05T12:05:47.605Z,2.58
2022-09-05T12:08:43.399Z,2.20
2022-09-05T12:11:16.757Z,2.50
2022-09-05T12:13:48.161Z,1.90
2022-09-05T12:16:39.566Z,2.50
2022-09-05T12:19:35.988Z,2.15
2022-09-05T12:22:23.652Z,2.00
2022-09-05T12:27:41.160Z,2.13
2022-09-05T12:29:36.365Z,1.60
2022-09-05T12:33:10.124Z,1.60
2022-09-05T12:36:06.283Z,1.60
2022-09-05T12:39:52.027Z,1.95
2022-09-05T12:40:57.928Z,3.03
2022-09-05T12:41:39.049Z,1.83
2022-09-05T12:44:40.017Z,1.60
2022-09-05T12:46:50.234Z,1.70
2022-09-05T12:49:37.112Z,1.50
2022-09-05T12:52:33.812Z,1.50
2022-09-05T12:55:11.930Z,1.90
2022-09-05T13:02:57.167Z,1.50
2022-09-05T13:03:08.337Z,1.30
2022-09-05T13:03:31.673Z,1.75
2022-09-05T13:06:02.961Z,1.80
2022-09-05T13:08:59.246Z,1.83
2022-09-05T13:14:49.161Z,1.43
2022-09-05T13:14:54.319Z,1.38
2022-09-05T13:17:30.376Z,1.60
2022-09-05T13:19:58.621Z,1.75
2022-09-05T13:22:26.383Z,1.63
2022-09-05T13:25:08.645Z,1.57
2022-09-05T13:27:41.375Z,1.40
2022-09-05T13:31:37.747Z,1.63
2022-09-05T13:38:14.032Z,1.40
2022-09-05T13:38:16.164Z,1.75
2022-09-05T13:39:22.841Z,1.63
2022-09-05T13:41:56.786Z,1.70
2022-09-05T13:44:27.301Z,1.80
2022-09-05T13:47:39.291Z,1.70
2022-09-05T13:50:26.449Z,1.40
2022-09-05T13:53:15.330Z,1.43
2022-09-05T13:56:03.133Z,1.33
2022-09-05T13:58:56.476Z,1.60
2022-09-05T14:01:29.954Z,1.45
2022-09-05T14:04:06.138Z,1.70
2022-09-05T14:06:49.341Z,1.50
2022-09-05T14:09:42.106Z,1.63
2022-09-05T14:12:19.533Z,1.60
2022-09-05T14:15:14.271Z,1.45
2022-09-05T14:18:03.005Z,1.70
2022-09-05T14:21:17.472Z,1.60
2022-09-05T14:23:58.288Z,1.65
2022-09-05T14:26:34.201Z,1.70
2022-09-05T14:29:14.479Z,2.00
2022-09-05T14:36:46.538Z,1.75
2022-09-05T14:37:52.209Z,1.80
2022-09-05T14:38:15.801Z,1.52
2022-09-05T14:41:02.829Z,1.70
2022-09-05T14:44:15.632Z,1.75
2022-09-05T14:47:06.398Z,1.75
2022-09-05T14:49:56.712Z,1.20
2022-09-05T14:52:29.913Z,1.40
2022-09-05T15:02:41.212Z,1.70
2022-09-05T15:02:45.617Z,1.40
2022-09-05T15:06:33.303Z,1.58
2022-09-05T15:12:11.153Z,1.67
2022-09-05T15:12:24.944Z,1.60
2022-09-05T15:14:37.250Z,1.58
2022-09-05T15:17:05.818Z,1.60
2022-09-05T15:20:05.080Z,1.50
2022-09-05T15:22:43.174Z,1.70
2022-09-05T15:25:19.464Z,1.50
2022-09-05T15:27:47.004Z,1.48
2022-09-05T15:30:36.013Z,1.50
2022-09-05T15:33:25.728Z,1.40
2022-09-05T15:35:53.322Z,1.85
2022-09-05T15:38:38.756Z,1.80
2022-09-05T15:41:23.119Z,1.60
2022-09-05T15:44:04.493Z,1.60
2022-09-05T15:46:46.352Z,1.50
2022-09-05T15:49:27.130Z,1.70
2022-09-05T15:52:18.577Z,1.73
2022-09-05T15:54:56.154Z,1.50
2022-09-05T15:57:49.879Z,1.30
2022-09-05T16:00:41.097Z,1.40
2022-09-05T16:04:49.835Z,1.48
2022-09-05T16:10:37.543Z,1.30
2022-09-05T16:10:38.055Z,1.40
2022-09-05T16:14:36.477Z,1.23
2022-09-05T16:23:17.781Z,1.50
2022-09-05T16:23:25.121Z,1.30
2022-09-05T16:23:48.805Z,1.40
2022-09-05T16:26:25.746Z,1.40
2022-09-05T16:29:05.998Z,1.48
2022-09-05T16:31:57.281Z,1.50
2022-09-05T16:34:26.902Z,1.05
2022-09-05T16:37:08.793Z,1.40
2022-09-05T16:39:41.283Z,1.73
2022-09-05T16:42:45.892Z,1.30
2022-09-05T16:45:14.189Z,1.40
2022-09-05T16:47:55.281Z,1.48
2022-09-05T16:50:39.002Z,1.70
2022-09-05T16:53:37.743Z,1.53
2022-09-05T16:56:13.916Z,1.30
2022-09-05T16:58:48.421Z,1.70
2022-09-05T17:02:06.354Z,1.40
2022-09-05T17:05:04.501Z,1.50
2022-09-05T17:07:49.467Z,1.40
2022-09-05T17:10:29.145Z,1.50
2022-09-05T17:12:56.113Z,1.50
2022-09-05T17:15:35.409Z,1.38
2022-09-05T17:18:22.513Z,1.50
2022-09-05T17:20:56.524Z,1.50
2022-09-05T17:28:05.201Z,1.38
2022-09-05T17:29:41.139Z,1.50
2022-09-05T17:32:39.790Z,1.40
2022-09-05T17:35:24.541Z,1.37
2022-09-05T17:38:11.882Z,1.20
2022-09-05T17:41:06.148Z,1.30
2022-09-05T17:43:39.188Z,1.10
2022-09-05T17:46:26.114Z,1.60
2022-09-05T17:49:17.594Z,1.30
2022-09-05T17:51:51.292Z,1.35
2022-09-05T17:54:30.938Z,1.45
2022-09-05T17:57:29.373Z,1.23
2022-09-05T18:00:11.246Z,1.40
2022-09-05T18:02:54.397Z,1.50
2022-09-05T18:05:56.941Z,1.38
2022-09-05T18:08:45.120Z,1.30
2022-09-05T18:11:25.295Z,1.40
2022-09-05T18:14:07.585Z,1.40
2022-09-05T18:16:57.064Z,1.47
2022-09-05T18:26:04.408Z,1.17
2022-09-05T18:28:48.081Z,1.30
2022-09-05T18:31:41.431Z,1.67
2022-09-05T18:34:14.806Z,1.20
2022-09-05T18:36:45.856Z,1.63
2022-09-05T18:39:27.870Z,1.42
2022-09-05T18:42:26.397Z,1.30
2022-09-05T18:45:03.356Z,1.30
2022-09-05T18:47:52.920Z,1.45
2022-09-05T18:50:36.320Z,1.48
2022-09-05T18:53:11.979Z,1.20
2022-09-05T18:56:20.147Z,1.33
2022-09-05T18:58:51.771Z,1.33
2022-09-05T19:01:45.149Z,1.40
2022-09-05T19:04:39.613Z,1.20
2022-09-05T19:07:13.962Z,1.40
2022-09-05T19:10:34.937Z,1.60
2022-09-05T19:13:24.089Z,1.37
2022-09-05T19:16:42.582Z,1.15
2022-09-05T19:19:16.172Z,1.30
2022-09-05T19:22:02.431Z,0.90
2022-09-05T19:24:45.397Z,1.10
2022-09-05T19:30:00.429Z,0.93
2022-09-05T19:36:44.622Z,1.15
2022-09-05T19:36:48.934Z,1.50
2022-09-05T19:36:50.326Z,1.15
2022-09-05T19:38:38.320Z,1.20
2022-09-05T19:47:35.805Z,1.53
2022-09-05T19:47:46.588Z,1.40
2022-09-05T19:48:03.931Z,1.13
2022-09-05T19:50:20.825Z,1.30
2022-09-05T19:52:51.275Z,1.38
2022-09-05T19:55:22.093Z,1.30
2022-09-05T19:58:19.237Z,1.10
2022-09-05T20:00:51.923Z,1.30
2022-09-05T20:03:27.941Z,1.52
2022-09-05T20:05:54.701Z,1.50
2022-09-05T20:08:34.022Z,1.20
2022-09-05T20:11:05.339Z,1.30
2022-09-05T20:13:33.032Z,1.20
2022-09-05T20:16:02.903Z,1.23
2022-09-05T20:18:37.272Z,1.10
2022-09-05T20:21:27.332Z,1.10
2022-09-05T20:23:56.289Z,1.20
2022-09-05T20:26:29.361Z,1.25
2022-09-05T20:29:02.726Z,1.25
2022-09-05T20:31:33.091Z,1.25
2022-09-05T20:34:35.679Z,1.00
2022-09-05T20:43:09.687Z,1.15
2022-09-05T20:43:21.347Z,1.40
2022-09-05T20:43:29.088Z,1.10
2022-09-05T20:45:45.831Z,0.98
2022-09-05T20:54:04.644Z,1.27
2022-09-05T20:54:20.330Z,1.10
2022-09-05T20:54:20.540Z,1.42
2022-09-05T20:56:48.087Z,1.05
2022-09-05T20:59:31.987Z,1.20
2022-09-05T21:02:02.081Z,1.10
2022-09-05T21:04:33.043Z,1.13
2022-09-05T21:07:13.410Z,1.35
2022-09-05T21:09:58.017Z,1.10
2022-09-05T21:12:28.319Z,1.10
2022-09-05T21:15:26.999Z,1.07
2022-09-05T21:18:13.191Z,1.10
2022-09-05T21:20:40.673Z,1.20
2022-09-05T21:23:40.269Z,1.20
2022-09-05T21:26:23.831Z,1.20
2022-09-05T21:29:12.860Z,1.17
2022-09-05T21:31:57.456Z,1.20
2022-09-05T21:34:44.690Z,1.00
2022-09-05T21:37:14.237Z,1.30
2022-09-05T21:39:59.381Z,1.08
2022-09-05T21:45:30.329Z,1.10
2022-09-05T21:47:47.284Z,1.13
2022-09-05T21:48:08.002Z,1.02
2022-09-05T21:50:41.271Z,1.20
2022-09-05T21:54:48.733Z,1.10
2022-09-05T21:59:16.567Z,1.00
2022-09-05T21:59:30.074Z,1.50
2022-09-05T22:01:52.256Z,1.10
2022-09-05T22:04:22.097Z,1.08
2022-09-05T22:06:49.655Z,1.10
2022-09-05T22:09:17.944Z,1.10
2022-09-05T22:11:50.491Z,1.13
2022-09-05T22:14:19.651Z,1.30
2022-09-05T22:16:48.471Z,1.10
2022-09-05T22:19:22.658Z,1.00
2022-09-05T22:21:53.440Z,1.00
2022-09-05T22:24:21.457Z,1.20
2022-09-05T22:27:11.238Z,0.98
2022-09-05T22:29:40.017Z,1.02
2022-09-05T22:32:07.173Z,0.98
2022-09-05T22:34:34.065Z,1.17
2022-09-05T22:37:00.684Z,1.08
2022-09-05T22:39:37.684Z,0.90
2022-09-05T22:42:10.728Z,0.90
2022-09-05T22:44:40.943Z,0.77
2022-09-05T22:47:11.674Z,0.87
2022-09-05T22:49:38.342Z,1.00
2022-09-05T22:52:09.772Z,0.90
2022-09-05T22:54:36.607Z,1.08
2022-09-05T22:57:04.186Z,1.10
2022-09-05T22:59:31.177Z,1.00
2022-09-05T23:01:58.399Z,1.15
2022-09-05T23:04:25.950Z,0.93
2022-09-05T23:06:52.689Z,1.00
2022-09-05T23:09:19.361Z,1.15
2022-09-05T23:11:46.100Z,0.90
2022-09-05T23:14:12.724Z,0.80
2022-09-05T23:16:39.334Z,1.00
2022-09-05T23:19:05.996Z,0.88
2022-09-05T23:21:34.342Z,0.90
2022-09-05T23:24:00.954Z,0.87
2022-09-05T23:26:27.716Z,1.10
2022-09-05T23:28:54.379Z,1.10
2022-09-05T23:31:21.095Z,1.00
2022-09-05T23:33:47.754Z,1.08
2022-09-05T23:36:14.883Z,1.00
2022-09-05T23:38:42.502Z,0.88
2022-09-05T23:41:11.981Z,1.00
2022-09-05T23:43:38.638Z,0.90
2022-09-05T23:46:05.600Z,0.90
2022-09-05T23:48:32.316Z,0.87
2022-09-05T23:51:06.659Z,1.00
2022-09-05T23:53:33.424Z,1.00
2022-09-05T23:56:01.369Z,0.80
2022-09-05T23:58:29.771Z,1.00
